N9XTN-3 Weather Reports


Display with metric or nautical units.
time (UTC)temp
F
wind
direction
speed
MPH
gust
MPH
rain 1hr
in
rain 24hr
in
rain mn
in
humidity
%
barometer
mb
20221130225517 24 248 2.0 4.0 0.00 0.00 0.00 62 1027.5
20221130225024 24 248 3.0 4.0 0.00 0.00 0.00 62 1027.3
20221130224524 25 248 3.0 4.0 0.00 0.00 0.00 61 1027.3
20221130224017 25 248 2.0 4.0 0.00 0.00 0.00 61 1027.6
20221130223537 25 248 3.0 6.0 0.00 0.00 0.00 61 1027.6
20221130223016 25 248 3.0 6.0 0.00 0.00 0.00 60 1027.6
20221130222524 26 248 2.0 4.0 0.00 0.00 0.00 60 1027.6
20221130222024 26 270 3.0 6.0 0.00 0.00 0.00 60 1027.6
20221130221524 26 270 4.0 8.0 0.00 0.00 0.00 58 1027.5
20221130221024 26 270 3.0 6.0 0.00 0.00 0.00 59 1027.4
20221130220524 26 270 3.0 6.0 0.00 0.00 0.00 59 1027.5
20221130220037 26 270 3.0 8.0 0.00 0.00 0.00 59 1027.5
20221130215524 26 270 6.0 11.0 0.00 0.00 0.00 58 1027.5
20221130214520 27 270 5.0 10.0 0.00 0.00 0.00 58 1027.7
20221130214044 27 248 5.0 10.0 0.00 0.00 0.00 58 1027.6
20221130213524 27 248 6.0 11.0 0.00 0.00 0.00 58 1027.7
20221130213037 27 270 5.0 13.0 0.00 0.00 0.00 58 1027.7
20221130212517 27 248 5.0 11.0 0.00 0.00 0.00 58 1027.7
20221130212017 27 270 6.0 10.0 0.00 0.00 0.00 58 1027.7
20221130211524 27 248 6.0 11.0 0.00 0.00 0.00 58 1027.7
20221130211024 27 248 6.0 10.0 0.00 0.00 0.00 59 1027.8
20221130210524 27 248 6.0 12.0 0.00 0.00 0.00 58 1027.8
20221130210024 28 248 6.0 10.0 0.00 0.00 0.00 59 1027.9
20221130205524 28 248 5.0 8.0 0.00 0.00 0.00 59 1028.0
20221130205017 27 248 6.0 9.0 0.00 0.00 0.00 59 1028.1
20221130204524 28 248 5.0 12.0 0.00 0.00 0.00 58 1028.1
20221130204024 28 225 6.0 12.0 0.00 0.00 0.00 60 1028.0
20221130203519 27 248 5.0 10.0 0.00 0.00 0.00 60 1028.0
20221130203024 27 270 5.0 12.0 0.00 0.00 0.00 58 1027.9
20221130202524 27 293 8.0 13.0 0.00 0.00 0.00 56 1027.9
20221130202017 27 270 6.0 10.0 0.00 0.00 0.00 57 1028.0
20221130201517 27 248 7.0 11.0 0.00 0.00 0.00 58 1028.1
20221130201017 27 248 7.0 13.0 0.00 0.00 0.00 57 1028.0
20221130200524 27 248 6.0 11.0 0.00 0.00 0.00 60 1028.0
20221130200024 27 270 7.0 12.0 0.00 0.00 0.00 58 1028.0
20221130195517 27 248 7.0 11.0 0.00 0.00 0.00 60 1027.9
20221130195024 26 270 6.0 12.0 0.00 0.00 0.00 59 1028.0
20221130194524 26 270 6.0 12.0 0.00 0.00 0.00 59 1028.1
20221130194017 26 270 7.0 12.0 0.00 0.00 0.00 59 1028.1
20221130193524 26 270 6.0 12.0 0.00 0.00 0.00 61 1028.2
20221130193024 26 270 7.0 14.0 0.00 0.00 0.00 58 1028.2
20221130192524 25 270 7.0 12.0 0.00 0.00 0.00 60 1028.1
20221130192017 25 270 7.0 13.0 0.00 0.00 0.00 60 1028.2
20221130191524 25 293 9.0 13.0 0.00 0.00 0.00 60 1028.3
20221130191044 25 270 10.0 15.0 0.00 0.00 0.00 60 1028.2
20221130190517 25 270 8.0 13.0 0.00 0.00 0.00 61 1028.3
20221130190017 25 270 9.0 16.0 0.00 0.00 0.00 59 1028.3
20221130185524 25 270 7.0 14.0 0.00 0.00 0.00 60 1028.4
20221130185024 25 248 7.0 13.0 0.00 0.00 0.00 61 1028.4
20221130184517 24 270 7.0 12.0 0.00 0.00 0.00 61 1028.3
20221130184024 24 270 7.0 13.0 0.00 0.00 0.00 60 1028.2
20221130183524 24 270 7.0 15.0 0.00 0.00 0.00 60 1028.3
20221130183024 24 270 6.0 11.0 0.00 0.00 0.00 61 1028.2
20221130182524 24 293 7.0 15.0 0.00 0.00 0.00 59 1028.3
20221130182024 24 270 7.0 15.0 0.00 0.00 0.00 60 1028.3
20221130181619 23 293 8.0 15.0 0.00 0.00 0.00 59 1028.2
20221130181018 24 293 7.0 13.0 0.00 0.00 0.00 60 1028.3
20221130180524 23 293 8.0 14.0 0.00 0.00 0.00 60 1028.4
20221130180017 23 293 7.0 15.0 0.00 0.00 0.00 61 1028.3
20221130175517 23 270 10.0 17.0 0.00 0.00 0.00 61 1028.4
20221130175017 23 293 9.0 17.0 0.00 0.00 0.00 61 1028.4
20221130174524 23 293 8.0 15.0 0.00 0.00 0.00 61 1028.4
20221130174024 23 270 10.0 18.0 0.00 0.00 0.00 61 1028.3
20221130173517 23 270 9.0 17.0 0.00 0.00 0.00 60 1028.3
20221130173024 23 293 7.0 15.0 0.00 0.00 0.00 61 1028.2
20221130172524 22 293 9.0 16.0 0.00 0.00 0.00 60 1028.3
20221130172024 22 293 10.0 16.0 0.00 0.00 0.00 60 1028.3
20221130171524 22 270 10.0 16.0 0.00 0.00 0.00 61 1028.3
20221130171024 22 270 9.0 15.0 0.00 0.00 0.00 61 1028.4
20221130170524 22 270 8.0 14.0 0.00 0.00 0.00 62 1028.4
20221130170017 21 270 9.0 14.0 0.00 0.00 0.00 62 1028.3
20221130165524 21 270 9.0 16.0 0.00 0.00 0.00 63 1028.3
20221130165024 21 270 11.0 19.0 0.00 0.00 0.00 62 1028.3
20221130164517 21 293 12.0 19.0 0.00 0.00 0.00 62 1028.2
20221130164017 21 293 11.0 20.0 0.00 0.00 0.00 62 1028.2
20221130163524 21 270 9.0 15.0 0.00 0.00 0.00 63 1028.1
20221130163024 21 270 11.0 20.0 0.00 0.00 0.00 62 1028.3
20221130162517 21 270 11.0 20.0 0.00 0.00 0.00 62 1028.1
20221130162024 21 270 9.0 17.0 0.00 0.00 0.00 64 1028.0
20221130161524 20 270 9.0 17.0 0.00 0.00 0.00 64 1027.8
20221130161024 20 270 10.0 17.0 0.00 0.00 0.00 64 1027.7
20221130160558 20 270 10.0 17.0 0.00 0.00 0.00 64 1027.7
20221130160024 20 270 10.0 16.0 0.00 0.00 0.00 65 1027.6
20221130155524 20 270 7.0 16.0 0.00 0.00 0.00 66 1027.5
20221130155024 19 270 8.0 15.0 0.00 0.00 0.00 66 1027.4
20221130154524 19 270 7.0 13.0 0.00 0.00 0.00 66 1027.3
20221130154024 19 248 7.0 14.0 0.00 0.00 0.00 67 1027.4
20221130153517 19 270 6.0 14.0 0.00 0.00 0.00 67 1027.3
20221130153017 19 270 6.0 11.0 0.00 0.00 0.00 68 1027.2
20221130152537 18 248 6.0 19.0 0.00 0.00 0.00 68 1027.2
20221130152024 18 270 6.0 12.0 0.00 0.00 0.00 68 1027.2
20221130151524 18 248 7.0 16.0 0.00 0.00 0.00 69 1027.2
20221130151024 17 248 7.0 13.0 0.00 0.00 0.00 70 1027.0
20221130150530 17 248 6.0 12.0 0.00 0.00 0.00 70 1026.9
20221130150024 17 270 7.0 14.0 0.00 0.00 0.00 71 1026.9
20221130145517 16 248 6.0 12.0 0.00 0.00 0.00 72 1026.7
20221130145024 16 248 6.0 12.0 0.00 0.00 0.00 73 1026.8
20221130144524 15 248 6.0 12.0 0.00 0.00 0.00 73 1026.6
20221130144119 15 248 7.0 14.0 0.00 0.00 0.00 74 1026.5
20221130143517 14 248 7.0 14.0 0.00 0.00 0.00 74 1026.4
20221130143024 14 248 6.0 10.0 0.00 0.00 0.00 75 1026.4
20221130142517 14 248 5.0 11.0 0.00 0.00 0.00 75 1026.4
20221130142017 13 248 5.0 11.0 0.00 0.00 0.00 75 1026.2
20221130141517 13 248 4.0 8.0 0.00 0.00 0.00 76 1026.1
20221130141044 13 225 3.0 8.0 0.00 0.00 0.00 76 1026.0
20221130140524 13 225 4.0 7.0 0.00 0.00 0.00 76 1026.0
20221130140017 13 225 4.0 8.0 0.00 0.00 0.00 76 1025.8
20221130135524 12 225 4.0 8.0 0.00 0.00 0.00 76 1025.7
20221130135104 12 248 4.0 6.0 0.00 0.00 0.00 76 1025.6
20221130134524 12 248 4.0 7.0 0.00 0.00 0.00 76 1025.5
20221130134024 12 248 4.0 8.0 0.00 0.00 0.00 76 1025.4
20221130133524 12 248 4.0 9.0 0.00 0.00 0.00 77 1025.4
20221130133024 12 248 4.0 9.0 0.00 0.00 0.00 76 1025.1
20221130132517 12 248 4.0 9.0 0.00 0.00 0.00 76 1025.0
20221130132024 12 248 4.0 7.0 0.00 0.00 0.00 76 1025.0
20221130131524 12 248 4.0 8.0 0.00 0.00 0.00 76 1024.9
20221130131037 12 248 5.0 10.0 0.00 0.00 0.00 76 1024.8
20221130130517 12 248 5.0 9.0 0.00 0.00 0.00 76 1024.5
20221130130017 12 248 5.0 7.0 0.00 0.00 0.00 76 1024.4
20221130125519 12 248 5.0 9.0 0.00 0.00 0.00 76 1024.3
20221130125017 12 248 5.0 9.0 0.00 0.00 0.00 76 1024.2
20221130124524 12 248 5.0 10.0 0.00 0.00 0.00 76 1024.2
20221130124024 12 248 6.0 10.0 0.00 0.00 0.00 76 1024.2
20221130123524 12 248 5.0 7.0 0.00 0.00 0.00 76 1024.1
20221130123017 12 248 5.0 8.0 0.00 0.00 0.00 76 1024.0
20221130122524 12 248 5.0 9.0 0.00 0.00 0.00 76 1023.9
20221130122024 12 248 5.0 8.0 0.00 0.00 0.00 76 1023.9
20221130121517 12 248 5.0 7.0 0.00 0.00 0.00 76 1023.8
20221130121025 12 248 6.0 11.0 0.00 0.00 0.00 75 1023.7
20221130120524 13 248 6.0 9.0 0.00 0.00 0.00 75 1023.7
20221130120024 13 248 5.0 8.0 0.00 0.00 0.00 75 1023.6
20221130115517 13 270 4.0 8.0 0.00 0.00 0.00 75 1023.5
20221130115017 13 248 3.0 6.0 0.00 0.00 0.00 75 1023.4
20221130114517 13 270 4.0 7.0 0.00 0.00 0.00 75 1023.3
20221130114024 14 270 4.0 10.0 0.00 0.00 0.00 74 1023.3
20221130113544 14 248 4.0 7.0 0.00 0.00 0.00 74 1023.3
20221130113024 14 248 4.0 9.0 0.00 0.00 0.00 74 1023.1
20221130112524 14 248 6.0 10.0 0.00 0.00 0.00 74 1023.2
20221130112017 14 248 5.0 9.0 0.00 0.00 0.00 74 1023.0
20221130111524 14 248 5.0 12.0 0.00 0.00 0.00 74 1022.9
20221130111024 14 248 5.0 12.0 0.00 0.00 0.00 74 1022.8
20221130110524 14 248 5.0 10.0 0.00 0.00 0.00 74 1022.8
20221130110024 14 248 6.0 10.0 0.00 0.00 0.00 75 1022.8
20221130105524 14 248 6.0 10.0 0.00 0.00 0.00 75 1022.7
20221130105019 14 248 5.0 7.0 0.00 0.00 0.00 75 1022.7
20221130104537 14 248 5.0 10.0 0.00 0.00 0.00 75 1022.7
20221130104017 13 248 5.0 7.0 0.00 0.00 0.00 75 1022.6
20221130103517 13 248 4.0 8.0 0.00 0.00 0.00 76 1022.4
20221130103024 13 248 5.0 10.0 0.00 0.00 0.00 76 1022.4
20221130102517 13 248 4.0 8.0 0.00 0.00 0.00 76 1022.3
20221130102024 13 248 5.0 9.0 0.00 0.00 0.00 76 1022.3
20221130101645 13 248 3.0 6.0 0.00 0.00 0.00 76 1022.1
20221130101017 13 248 4.0 7.0 0.00 0.00 0.00 77 1022.0
20221130100524 13 248 3.0 6.0 0.00 0.00 0.00 77 1021.9
20221130100024 13 248 3.0 6.0 0.00 0.00 0.00 76 1021.9
20221130095524 13 248 2.0 6.0 0.00 0.00 0.00 76 1021.7
20221130095017 13 248 3.0 6.0 0.00 0.00 0.00 77 1021.7
20221130094524 13 248 4.0 7.0 0.00 0.00 0.00 77 1021.7
20221130094044 13 248 3.0 7.0 0.00 0.00 0.00 77 1021.5
20221130093524 13 248 3.0 7.0 0.00 0.00 0.00 77 1021.5
20221130093017 13 225 3.0 6.0 0.00 0.00 0.00 77 1021.3
20221130092517 13 225 2.0 4.0 0.00 0.00 0.00 77 1021.3
20221130092017 13 248 3.0 5.0 0.00 0.00 0.00 77 1021.2
20221130091517 13 248 3.0 6.0 0.00 0.00 0.00 77 1021.0
20221130091024 13 248 3.0 5.0 0.00 0.00 0.00 76 1021.0
20221130090524 13 248 3.0 6.0 0.00 0.00 0.00 76 1021.0
20221130090024 14 248 3.0 5.0 0.00 0.00 0.00 76 1020.8
20221130085524 14 248 3.0 6.0 0.00 0.00 0.00 76 1020.5
20221130085024 14 248 3.0 6.0 0.00 0.00 0.00 76 1020.5
20221130084524 14 248 3.0 5.0 0.00 0.00 0.00 75 1020.6
20221130084017 14 248 3.0 4.0 0.00 0.00 0.00 75 1020.5
20221130083524 14 248 3.0 5.0 0.00 0.00 0.00 75 1020.5
20221130083024 14 248 3.0 5.0 0.00 0.00 0.00 75 1020.3
20221130082524 15 248 3.0 5.0 0.00 0.00 0.00 74 1020.3
20221130082017 15 248 4.0 6.0 0.00 0.00 0.00 75 1020.0
20221130081537 15 248 3.0 5.0 0.00 0.00 0.00 75 1019.9
20221130081037 15 248 4.0 7.0 0.00 0.00 0.00 75 1019.9
20221130080524 15 248 4.0 7.0 0.00 0.00 0.00 75 1019.9
20221130080024 15 248 4.0 6.0 0.00 0.00 0.00 74 1019.7
20221130075524 15 248 4.0 6.0 0.00 0.00 0.00 74 1019.7
20221130075024 16 248 4.0 6.0 0.00 0.00 0.00 73 1019.7
20221130074517 16 248 4.0 6.0 0.00 0.00 0.00 72 1019.8
20221130074024 16 248 4.0 7.0 0.00 0.00 0.00 71 1019.8
20221130073524 17 248 5.0 7.0 0.00 0.00 0.00 71 1019.7
20221130073024 17 248 5.0 9.0 0.00 0.00 0.00 70 1019.5
20221130072524 18 248 5.0 12.0 0.00 0.00 0.00 70 1019.7
20221130072024 18 248 6.0 9.0 0.00 0.00 0.00 69 1019.7
20221130071524 18 248 5.0 10.0 0.00 0.00 0.00 69 1019.6
20221130071018 19 248 6.0 11.0 0.00 0.00 0.00 68 1019.6
20221130070517 19 270 5.0 9.0 0.00 0.00 0.00 68 1019.7
20221130070037 19 248 6.0 13.0 0.00 0.00 0.00 67 1019.5
20221130065517 19 248 7.0 12.0 0.00 0.00 0.00 67 1019.6
20221130065024 19 248 7.0 13.0 0.00 0.00 0.00 67 1019.4
20221130064524 19 248 7.0 13.0 0.00 0.00 0.00 67 1019.3
20221130064125 20 248 7.0 12.0 0.00 0.00 0.00 66 1019.1
20221130063517 20 270 6.0 13.0 0.00 0.00 0.00 66 1019.0
20221130063024 20 270 6.0 10.0 0.00 0.00 0.00 66 1018.8
20221130062524 20 270 5.0 11.0 0.00 0.00 0.00 65 1018.8
20221130062024 21 270 7.0 14.0 0.00 0.00 0.00 65 1018.8
20221130061517 21 293 8.0 13.0 0.00 0.00 0.00 65 1018.6
20221130061024 21 270 10.0 19.0 0.00 0.00 0.00 65 1018.7
20221130060524 21 270 10.0 16.0 0.00 0.00 0.00 65 1018.6
20221130060017 21 270 8.0 14.0 0.00 0.00 0.00 65 1018.7
20221130055517 21 270 8.0 14.0 0.00 0.00 0.00 65 1018.6
20221130055037 21 248 8.0 18.0 0.00 0.00 0.00 65 1018.7
20221130054517 21 270 7.0 16.0 0.00 0.00 0.00 66 1018.6
20221130054037 21 270 9.0 15.0 0.00 0.00 0.00 66 1018.5
20221130053524 22 270 9.0 16.0 0.00 0.00 0.00 65 1018.4
20221130053016 21 270 11.0 16.0 0.00 0.00 0.00 65 1018.3
20221130052544 21 270 10.0 15.0 0.00 0.00 0.00 66 1018.2
20221130052024 21 270 10.0 15.0 0.00 0.00 0.00 66 1018.1
20221130051524 21 270 8.0 14.0 0.00 0.00 0.00 66 1018.0
20221130051024 21 270 9.0 15.0 0.00 0.00 0.00 66 1017.8
20221130050537 21 270 9.0 17.0 0.00 0.00 0.00 66 1017.7
20221130050019 21 270 8.0 15.0 0.00 0.00 0.00 66 1017.5
20221130045524 22 270 9.0 14.0 0.00 0.00 0.00 66 1017.5
20221130045024 22 270 10.0 18.0 0.00 0.00 0.00 66 1017.4
20221130044537 21 270 9.0 16.0 0.00 0.00 0.00 67 1017.4
20221130044017 21 270 7.0 13.0 0.00 0.00 0.00 67 1017.3
20221130043517 21 248 8.0 14.0 0.00 0.00 0.00 67 1017.2
20221130043022 21 270 9.0 16.0 0.00 0.00 0.00 67 1017.2
20221130042525 21 270 7.0 14.0 0.00 0.00 0.00 67 1017.2
20221130042024 22 248 8.0 16.0 0.00 0.00 0.00 67 1017.0
20221130041524 22 270 6.0 13.0 0.00 0.00 0.00 67 1017.0
20221130041024 22 270 7.0 13.0 0.00 0.00 0.00 67 1017.0
20221130040524 22 270 7.0 14.0 0.00 0.00 0.00 67 1017.0
20221130040024 22 270 7.0 14.0 0.00 0.00 0.00 67 1017.0
20221130035517 22 270 8.0 16.0 0.00 0.00 0.00 66 1016.9
20221130035024 22 270 9.0 15.0 0.00 0.00 0.00 67 1016.7
20221130034524 22 270 8.0 15.0 0.00 0.00 0.00 67 1016.7
20221130034025 22 270 9.0 16.0 0.00 0.00 0.00 67 1016.6
20221130033517 22 270 9.0 14.0 0.00 0.00 0.00 67 1016.5
20221130033017 22 270 10.0 14.0 0.00 0.00 0.00 68 1016.5
20221130032517 22 270 8.0 16.0 0.00 0.00 0.00 69 1016.4
20221130032022 22 248 7.0 14.0 0.00 0.00 0.00 69 1016.3
20221130031524 22 248 6.0 12.0 0.00 0.00 0.00 69 1016.2
20221130031024 22 248 8.0 15.0 0.00 0.00 0.00 69 1016.1
20221130030524 22 270 8.0 15.0 0.00 0.00 0.00 69 1016.0
20221130030017 22 270 7.0 11.0 0.00 0.00 0.00 69 1016.0
20221130025544 23 270 8.0 18.0 0.00 0.00 0.00 69 1016.0
20221130025024 22 248 6.0 10.0 0.00 0.00 0.00 70 1015.8
20221130024524 22 270 6.0 13.0 0.00 0.00 0.00 70 1015.7
20221130024024 23 248 7.0 12.0 0.00 0.00 0.00 70 1015.7
20221130023524 23 248 5.0 10.0 0.00 0.00 0.00 70 1015.6
20221130023025 23 270 6.0 12.0 0.00 0.00 0.00 70 1015.5
20221130022517 23 270 7.0 13.0 0.00 0.00 0.00 70 1015.3
20221130022017 23 270 7.0 13.0 0.00 0.00 0.00 70 1015.1
20221130021517 23 270 8.0 14.0 0.00 0.00 0.00 70 1015.1
20221130021017 23 270 9.0 15.0 0.00 0.00 0.00 70 1015.1
20221130020524 23 270 8.0 15.0 0.00 0.00 0.00 71 1015.0
20221130020024 23 270 9.0 15.0 0.00 0.00 0.00 71 1015.0
20221130015524 23 270 7.0 15.0 0.00 0.00 0.00 71 1014.9
20221130015037 23 270 7.0 15.0 0.00 0.00 0.00 71 1014.8
20221130014524 23 270 8.0 15.0 0.00 0.00 0.00 71 1014.8
20221130014024 23 270 6.0 10.0 0.00 0.00 0.00 71 1014.7
20221130013524 23 248 6.0 10.0 0.00 0.00 0.00 71 1014.7
20221130013024 23 248 8.0 13.0 0.00 0.00 0.00 71 1014.7
20221130012524 23 248 5.0 11.0 0.00 0.00 0.00 71 1014.5
20221130012024 23 248 7.0 13.0 0.00 0.00 0.00 71 1014.4
20221130011517 23 248 7.0 15.0 0.00 0.00 0.00 71 1014.4
20221130011017 23 270 5.0 10.0 0.00 0.00 0.00 71 1014.3
20221130010537 23 270 7.0 12.0 0.00 0.00 0.00 71 1014.2
20221130010017 23 270 5.0 10.0 0.00 0.00 0.00 72 1014.2
20221130005522 22 270 7.0 13.0 0.00 0.00 0.00 72 1014.1
20221130005044 22 270 7.0 13.0 0.00 0.00 0.00 72 1014.1
20221130004524 23 270 8.0 15.0 0.00 0.00 0.00 72 1014.1
20221130004017 23 270 7.0 12.0 0.00 0.00 0.00 72 1014.1
20221130003524 23 270 8.0 13.0 0.00 0.00 0.00 71 1014.0
20221130003024 23 293 7.0 13.0 0.00 0.00 0.00 71 1013.9
20221130002524 23 293 7.0 15.0 0.00 0.00 0.00 72 1013.8
20221130002017 23 270 4.0 12.0 0.00 0.00 0.00 72 1013.6
20221130001524 23 293 5.0 14.0 0.00 0.00 0.00 72 1013.7
20221130001024 23 270 7.0 13.0 0.00 0.00 0.00 71 1013.4
20221130000524 23 293 10.0 16.0 0.00 0.00 0.00 72 1013.4
20221130000017 22 293 6.0 14.0 0.00 0.00 0.00 73 1013.2
20221129235517 22 270 5.0 11.0 0.00 0.00 0.00 73 1013.1
20221129235037 22 270 5.0 10.0 0.00 0.00 0.00 73 1013.2
20221129234522 22 293 4.0 10.0 0.00 0.00 0.00 73 1013.2
20221129234024 23 293 4.0 10.0 0.00 0.00 0.00 72 1013.1
20221129233524 23 293 5.0 13.0 0.00 0.00 0.00 72 1013.0
20221129233024 23 293 6.0 10.0 0.00 0.00 0.00 72 1012.9
20221129232515 23 315 5.0 12.0 0.00 0.00 0.00 71 1012.7
20221129232024 23 315 6.0 12.0 0.00 0.00 0.00 71 1012.5
20221129231525 23 338 8.0 17.0 0.00 0.00 0.00 71 1012.5
20221129231017 23 315 9.0 19.0 0.00 0.00 0.00 71 1012.3
20221129230524 23 338 8.0 20.0 0.00 0.00 0.00 71 1012.3
20221129230024 23 315 6.0 13.0 0.00 0.00 0.00 72 1012.2